sensor_id;sensor_type;location;lat;lon;timestamp;temperature;humidity
39401;DHT22;54391;50.000;7.360;2023-11-18T00:00:19;4.40;99.90
39401;DHT22;54391;50.000;7.360;2023-11-18T00:02:46;4.30;99.90
39401;DHT22;54391;50.000;7.360;2023-11-18T00:05:14;4.30;99.90
39401;DHT22;54391;50.000;7.360;2023-11-18T00:07:42;4.10;99.90
39401;DHT22;54391;50.000;7.360;2023-11-18T00:17:37;4.10;99.90
39401;DHT22;54391;50.000;7.360;2023-11-18T00:25:04;4.10;99.90
39401;DHT22;54391;50.000;7.360;2023-11-18T00:27:33;4.00;99.90
39401;DHT22;54391;50.000;7.360;2023-11-18T01:04:15;4.10;99.90
39401;DHT22;54391;50.000;7.360;2023-11-18T01:06:42;4.00;99.90
39401;DHT22;54391;50.000;7.360;2023-11-18T01:09:09;4.10;99.90
39401;DHT22;54391;50.000;7.360;2023-11-18T01:11:38;3.80;99.90
39401;DHT22;54391;50.000;7.360;2023-11-18T01:33:59;4.00;99.90
39401;DHT22;54391;50.000;7.360;2023-11-18T02:11:20;3.90;99.90
39401;DHT22;54391;50.000;7.360;2023-11-18T02:16:20;3.90;99.90
39401;DHT22;54391;50.000;7.360;2023-11-18T02:18:49;3.90;99.90
39401;DHT22;54391;50.000;7.360;2023-11-18T02:21:17;4.00;99.90
39401;DHT22;54391;50.000;7.360;2023-11-18T02:23:44;4.10;99.90
39401;DHT22;54391;50.000;7.360;2023-11-18T02:28:50;4.10;99.90
39401;DHT22;54391;50.000;7.360;2023-11-18T02:39:04;3.80;99.90
39401;DHT22;54391;50.000;7.360;2023-11-18T02:41:36;3.80;99.90
39401;DHT22;54391;50.000;7.360;2023-11-18T02:49:45;3.60;99.90
39401;DHT22;54391;50.000;7.360;2023-11-18T02:52:20;3.60;99.90
39401;DHT22;54391;50.000;7.360;2023-11-18T02:54:48;3.60;99.90
39401;DHT22;54391;50.000;7.360;2023-11-18T02:57:17;3.60;99.90
39401;DHT22;54391;50.000;7.360;2023-11-18T03:19:35;3.50;99.90
39401;DHT22;54391;50.000;7.360;2023-11-18T03:26:59;3.30;99.90
39401;DHT22;54391;50.000;7.360;2023-11-18T03:29:26;3.30;99.90
39401;DHT22;54391;50.000;7.360;2023-11-18T03:31:56;3.20;99.90
39401;DHT22;54391;50.000;7.360;2023-11-18T03:34:24;3.40;99.90
39401;DHT22;54391;50.000;7.360;2023-11-18T03:36:51;3.30;99.90
39401;DHT22;54391;50.000;7.360;2023-11-18T03:39:18;3.30;99.90
39401;DHT22;54391;50.000;7.360;2023-11-18T03:44:12;3.20;99.90
39401;DHT22;54391;50.000;7.360;2023-11-18T03:46:40;3.20;99.90
39401;DHT22;54391;50.000;7.360;2023-11-18T03:49:27;3.20;99.90
39401;DHT22;54391;50.000;7.360;2023-11-18T03:58:48;3.60;99.90
39401;DHT22;54391;50.000;7.360;2023-11-18T04:01:20;3.00;99.90
39401;DHT22;54391;50.000;7.360;2023-11-18T04:04:24;3.30;99.90
39401;DHT22;54391;50.000;7.360;2023-11-18T04:17:24;3.10;99.90
39401;DHT22;54391;50.000;7.360;2023-11-18T04:19:53;3.20;99.90
39401;DHT22;54391;50.000;7.360;2023-11-18T04:24:51;2.90;99.90
39401;DHT22;54391;50.000;7.360;2023-11-18T04:32:23;3.00;99.90
39401;DHT22;54391;50.000;7.360;2023-11-18T04:49:37;3.50;99.90
39401;DHT22;54391;50.000;7.360;2023-11-18T05:04:30;3.50;99.90
39401;DHT22;54391;50.000;7.360;2023-11-18T05:06:57;3.60;99.90
39401;DHT22;54391;50.000;7.360;2023-11-18T05:09:25;3.50;99.90
39401;DHT22;54391;50.000;7.360;2023-11-18T05:11:55;3.30;99.90
39401;DHT22;54391;50.000;7.360;2023-11-18T05:19:06;3.50;99.90
39401;DHT22;54391;50.000;7.360;2023-11-18T05:21:34;3.60;99.90
39401;DHT22;54391;50.000;7.360;2023-11-18T05:27:50;3.40;99.90
39401;DHT22;54391;50.000;7.360;2023-11-18T05:42:08;3.40;99.90
39401;DHT22;54391;50.000;7.360;2023-11-18T05:54:34;3.30;99.90
39401;DHT22;54391;50.000;7.360;2023-11-18T05:59:28;3.30;99.90
39401;DHT22;54391;50.000;7.360;2023-11-18T07:09:56;3.30;99.90
39401;DHT22;54391;50.000;7.360;2023-11-18T07:13:20;3.60;99.90
39401;DHT22;54391;50.000;7.360;2023-11-18T07:15:50;3.70;99.90
39401;DHT22;54391;50.000;7.360;2023-11-18T07:23:20;3.70;99.90
39401;DHT22;54391;50.000;7.360;2023-11-18T07:25:50;3.70;99.90
39401;DHT22;54391;50.000;7.360;2023-11-18T07:28:21;3.70;99.90
39401;DHT22;54391;50.000;7.360;2023-11-18T07:38:18;3.80;99.90
39401;DHT22;54391;50.000;7.360;2023-11-18T07:40:48;3.90;99.90
39401;DHT22;54391;50.000;7.360;2023-11-18T07:49:04;3.90;99.90
39401;DHT22;54391;50.000;7.360;2023-11-18T07:54:00;3.80;99.90
39401;DHT22;54391;50.000;7.360;2023-11-18T07:56:30;3.80;99.90
39401;DHT22;54391;50.000;7.360;2023-11-18T08:07:56;3.90;99.90
39401;DHT22;54391;50.000;7.360;2023-11-18T08:10:27;3.80;99.90
39401;DHT22;54391;50.000;7.360;2023-11-18T08:12:56;4.00;99.90
39401;DHT22;54391;50.000;7.360;2023-11-18T11:25:41;4.70;99.90
39401;DHT22;54391;50.000;7.360;2023-11-18T11:28:14;4.80;99.90
39401;DHT22;54391;50.000;7.360;2023-11-18T11:30:45;4.90;99.90
39401;DHT22;54391;50.000;7.360;2023-11-18T12:33:07;4.90;99.90
39401;DHT22;54391;50.000;7.360;2023-11-18T12:39:26;5.30;99.90
39401;DHT22;54391;50.000;7.360;2023-11-18T12:42:02;5.30;99.90
39401;DHT22;54391;50.000;7.360;2023-11-18T12:44:37;5.30;99.90
39401;DHT22;54391;50.000;7.360;2023-11-18T12:47:08;5.20;99.90
39401;DHT22;54391;50.000;7.360;2023-11-18T12:49:44;5.30;99.90
39401;DHT22;54391;50.000;7.360;2023-11-18T12:57:16;5.40;99.90
39401;DHT22;54391;50.000;7.360;2023-11-18T12:59:43;5.40;99.90
39401;DHT22;54391;50.000;7.360;2023-11-18T13:02:12;5.20;99.90
39401;DHT22;54391;50.000;7.360;2023-11-18T13:04:45;5.40;99.90
39401;DHT22;54391;50.000;7.360;2023-11-18T13:09:43;5.30;99.90
39401;DHT22;54391;50.000;7.360;2023-11-18T13:12:13;5.30;99.90
39401;DHT22;54391;50.000;7.360;2023-11-18T13:17:13;5.20;99.90
39401;DHT22;54391;50.000;7.360;2023-11-18T13:19:42;5.40;99.90
39401;DHT22;54391;50.000;7.360;2023-11-18T13:24:40;5.50;99.90
39401;DHT22;54391;50.000;7.360;2023-11-18T13:27:10;5.50;99.90
39401;DHT22;54391;50.000;7.360;2023-11-18T13:29:43;5.70;99.90
39401;DHT22;54391;50.000;7.360;2023-11-18T13:32:11;5.50;99.90
39401;DHT22;54391;50.000;7.360;2023-11-18T13:34:39;5.40;99.90
39401;DHT22;54391;50.000;7.360;2023-11-18T13:39:38;5.50;99.90
39401;DHT22;54391;50.000;7.360;2023-11-18T13:42:21;5.40;99.90
39401;DHT22;54391;50.000;7.360;2023-11-18T13:44:50;5.30;99.90
39401;DHT22;54391;50.000;7.360;2023-11-18T13:47:18;5.40;99.90
39401;DHT22;54391;50.000;7.360;2023-11-18T13:49:49;5.40;99.90
39401;DHT22;54391;50.000;7.360;2023-11-18T13:52:18;5.30;99.90
39401;DHT22;54391;50.000;7.360;2023-11-18T13:54:47;5.40;99.90
39401;DHT22;54391;50.000;7.360;2023-11-18T13:57:20;5.50;99.90
39401;DHT22;54391;50.000;7.360;2023-11-18T14:17:14;5.40;99.90
39401;DHT22;54391;50.000;7.360;2023-11-18T14:29:38;5.40;99.90
39401;DHT22;54391;50.000;7.360;2023-11-18T14:34:35;5.30;99.90
39401;DHT22;54391;50.000;7.360;2023-11-18T15:26:45;5.20;99.90
39401;DHT22;54391;50.000;7.360;2023-11-18T15:29:12;5.40;99.90
39401;DHT22;54391;50.000;7.360;2023-11-18T15:31:40;5.30;99.90
39401;DHT22;54391;50.000;7.360;2023-11-18T15:34:08;5.30;99.90
39401;DHT22;54391;50.000;7.360;2023-11-18T15:36:40;5.30;99.90
39401;DHT22;54391;50.000;7.360;2023-11-18T15:39:08;5.30;99.90
39401;DHT22;54391;50.000;7.360;2023-11-18T15:41:35;5.30;99.90
39401;DHT22;54391;50.000;7.360;2023-11-18T15:44:05;5.20;99.90
39401;DHT22;54391;50.000;7.360;2023-11-18T15:46:32;4.80;99.90
39401;DHT22;54391;50.000;7.360;2023-11-18T15:49:00;5.30;99.90
39401;DHT22;54391;50.000;7.360;2023-11-18T15:51:28;5.20;99.90
39401;DHT22;54391;50.000;7.360;2023-11-18T15:53:56;5.20;99.90
39401;DHT22;54391;50.000;7.360;2023-11-18T16:21:09;5.50;99.90
39401;DHT22;54391;50.000;7.360;2023-11-18T16:58:23;5.70;99.90
39401;DHT22;54391;50.000;7.360;2023-11-18T17:15:47;5.70;99.90
39401;DHT22;54391;50.000;7.360;2023-11-18T17:18:15;5.70;99.90
39401;DHT22;54391;50.000;7.360;2023-11-18T17:20:42;5.70;99.90
39401;DHT22;54391;50.000;7.360;2023-11-18T17:46:27;5.80;99.90
39401;DHT22;54391;50.000;7.360;2023-11-18T17:51:24;5.90;99.90
39401;DHT22;54391;50.000;7.360;2023-11-18T17:53:56;5.80;99.90
39401;DHT22;54391;50.000;7.360;2023-11-18T17:56:23;5.80;99.90
39401;DHT22;54391;50.000;7.360;2023-11-18T17:58:50;6.00;99.90
39401;DHT22;54391;50.000;7.360;2023-11-18T18:01:18;5.80;99.90
39401;DHT22;54391;50.000;7.360;2023-11-18T18:03:45;5.80;99.90
39401;DHT22;54391;50.000;7.360;2023-11-18T18:06:14;6.00;99.90
39401;DHT22;54391;50.000;7.360;2023-11-18T18:16:11;5.90;99.90
39401;DHT22;54391;50.000;7.360;2023-11-18T18:35:15;5.90;99.90
39401;DHT22;54391;50.000;7.360;2023-11-18T18:40:14;6.00;99.90
39401;DHT22;54391;50.000;7.360;2023-11-18T18:42:43;5.90;99.90
39401;DHT22;54391;50.000;7.360;2023-11-18T18:45:11;5.90;99.90
39401;DHT22;54391;50.000;7.360;2023-11-18T18:47:40;6.00;99.90
39401;DHT22;54391;50.000;7.360;2023-11-18T19:02:06;6.10;99.90
39401;DHT22;54391;50.000;7.360;2023-11-18T19:04:36;6.10;99.90
39401;DHT22;54391;50.000;7.360;2023-11-18T19:07:04;6.10;99.90
39401;DHT22;54391;50.000;7.360;2023-11-18T19:18:05;6.40;99.90
39401;DHT22;54391;50.000;7.360;2023-11-18T19:20:32;6.60;99.90
39401;DHT22;54391;50.000;7.360;2023-11-18T19:22:59;6.50;99.90
39401;DHT22;54391;50.000;7.360;2023-11-18T19:25:27;6.50;99.90
39401;DHT22;54391;50.000;7.360;2023-11-18T19:32:52;6.70;99.90
39401;DHT22;54391;50.000;7.360;2023-11-18T19:35:19;6.70;99.90
39401;DHT22;54391;50.000;7.360;2023-11-18T19:37:47;6.70;99.90
39401;DHT22;54391;50.000;7.360;2023-11-18T19:40:15;6.70;99.90
39401;DHT22;54391;50.000;7.360;2023-11-18T19:42:43;6.60;99.90
39401;DHT22;54391;50.000;7.360;2023-11-18T19:45:10;6.60;99.90
39401;DHT22;54391;50.000;7.360;2023-11-18T19:47:40;6.50;99.90
39401;DHT22;54391;50.000;7.360;2023-11-18T19:50:08;6.50;99.90
39401;DHT22;54391;50.000;7.360;2023-11-18T19:52:35;6.40;99.90
39401;DHT22;54391;50.000;7.360;2023-11-18T19:55:03;6.40;99.90
39401;DHT22;54391;50.000;7.360;2023-11-18T19:57:30;6.40;99.90
39401;DHT22;54391;50.000;7.360;2023-11-18T19:59:58;6.20;99.90
39401;DHT22;54391;50.000;7.360;2023-11-18T20:02:25;6.40;99.90
39401;DHT22;54391;50.000;7.360;2023-11-18T20:04:56;6.40;99.90
39401;DHT22;54391;50.000;7.360;2023-11-18T20:19:49;6.60;99.90
39401;DHT22;54391;50.000;7.360;2023-11-18T20:22:20;6.80;99.90
39401;DHT22;54391;50.000;7.360;2023-11-18T20:24:47;6.70;99.90
39401;DHT22;54391;50.000;7.360;2023-11-18T20:39:41;7.10;99.90
39401;DHT22;54391;50.000;7.360;2023-11-18T20:42:08;7.10;99.90
39401;DHT22;54391;50.000;7.360;2023-11-18T20:44:35;7.20;99.90
39401;DHT22;54391;50.000;7.360;2023-11-18T20:47:03;7.20;99.90
39401;DHT22;54391;50.000;7.360;2023-11-18T20:49:30;7.30;99.90
39401;DHT22;54391;50.000;7.360;2023-11-18T20:51:57;7.30;99.90
39401;DHT22;54391;50.000;7.360;2023-11-18T20:54:25;7.40;99.90
39401;DHT22;54391;50.000;7.360;2023-11-18T20:59:21;7.30;99.90
39401;DHT22;54391;50.000;7.360;2023-11-18T21:04:17;7.60;99.90
39401;DHT22;54391;50.000;7.360;2023-11-18T21:06:45;7.60;99.90
39401;DHT22;54391;50.000;7.360;2023-11-18T21:09:12;7.70;99.90
39401;DHT22;54391;50.000;7.360;2023-11-18T21:11:40;7.70;99.90
39401;DHT22;54391;50.000;7.360;2023-11-18T21:14:09;7.40;99.90
39401;DHT22;54391;50.000;7.360;2023-11-18T21:16:36;7.60;99.90
39401;DHT22;54391;50.000;7.360;2023-11-18T21:19:03;7.60;99.90
39401;DHT22;54391;50.000;7.360;2023-11-18T21:21:32;7.70;99.90
39401;DHT22;54391;50.000;7.360;2023-11-18T21:31:31;7.60;99.90
39401;DHT22;54391;50.000;7.360;2023-11-18T21:33:58;7.60;99.90
39401;DHT22;54391;50.000;7.360;2023-11-18T21:42:29;7.60;99.90
39401;DHT22;54391;50.000;7.360;2023-11-18T21:44:57;7.60;99.90
39401;DHT22;54391;50.000;7.360;2023-11-18T21:47:25;7.80;99.90
39401;DHT22;54391;50.000;7.360;2023-11-18T21:57:22;7.70;99.90
39401;DHT22;54391;50.000;7.360;2023-11-18T21:59:49;7.70;99.90
39401;DHT22;54391;50.000;7.360;2023-11-18T22:02:16;7.70;99.90
39401;DHT22;54391;50.000;7.360;2023-11-18T22:04:45;7.90;99.90
39401;DHT22;54391;50.000;7.360;2023-11-18T22:07:12;7.70;99.90
39401;DHT22;54391;50.000;7.360;2023-11-18T22:17:05;7.80;99.90
39401;DHT22;54391;50.000;7.360;2023-11-18T22:19:33;7.90;99.90
39401;DHT22;54391;50.000;7.360;2023-11-18T22:22:21;7.90;99.90
39401;DHT22;54391;50.000;7.360;2023-11-18T22:28:18;7.90;99.90
39401;DHT22;54391;50.000;7.360;2023-11-18T22:30:45;7.90;99.90
39401;DHT22;54391;50.000;7.360;2023-11-18T22:33:13;7.90;99.90
39401;DHT22;54391;50.000;7.360;2023-11-18T22:35:41;7.90;99.90
39401;DHT22;54391;50.000;7.360;2023-11-18T22:38:10;8.20;99.90
39401;DHT22;54391;50.000;7.360;2023-11-18T22:40:39;8.00;99.90
39401;DHT22;54391;50.000;7.360;2023-11-18T22:43:07;8.20;99.90
39401;DHT22;54391;50.000;7.360;2023-11-18T22:50:32;8.20;99.90
39401;DHT22;54391;50.000;7.360;2023-11-18T22:53:01;8.20;99.90
39401;DHT22;54391;50.000;7.360;2023-11-18T22:55:29;8.20;99.90
39401;DHT22;54391;50.000;7.360;2023-11-18T22:57:57;8.40;99.90
39401;DHT22;54391;50.000;7.360;2023-11-18T23:00:24;8.40;99.90
39401;DHT22;54391;50.000;7.360;2023-11-18T23:03:12;8.40;99.90
39401;DHT22;54391;50.000;7.360;2023-11-18T23:05:39;8.30;99.90
39401;DHT22;54391;50.000;7.360;2023-11-18T23:08:08;8.50;99.90
39401;DHT22;54391;50.000;7.360;2023-11-18T23:10:38;8.50;99.90
39401;DHT22;54391;50.000;7.360;2023-11-18T23:13:06;8.40;99.90
39401;DHT22;54391;50.000;7.360;2023-11-18T23:15:33;8.30;99.90
39401;DHT22;54391;50.000;7.360;2023-11-18T23:18:01;8.40;99.90
39401;DHT22;54391;50.000;7.360;2023-11-18T23:20:30;8.40;99.90
39401;DHT22;54391;50.000;7.360;2023-11-18T23:22:57;8.40;99.90
39401;DHT22;54391;50.000;7.360;2023-11-18T23:25:25;8.40;99.90
39401;DHT22;54391;50.000;7.360;2023-11-18T23:27:55;8.40;99.90
39401;DHT22;54391;50.000;7.360;2023-11-18T23:30:23;8.40;99.90
39401;DHT22;54391;50.000;7.360;2023-11-18T23:32:57;8.40;99.90
39401;DHT22;54391;50.000;7.360;2023-11-18T23:44:07;8.60;99.90
39401;DHT22;54391;50.000;7.360;2023-11-18T23:46:41;8.50;99.90
39401;DHT22;54391;50.000;7.360;2023-11-18T23:49:10;8.40;99.90
39401;DHT22;54391;50.000;7.360;2023-11-18T23:51:38;8.50;99.90
39401;DHT22;54391;50.000;7.360;2023-11-18T23:54:05;8.50;99.90
39401;DHT22;54391;50.000;7.360;2023-11-18T23:56:33;8.60;99.90
39401;DHT22;54391;50.000;7.360;2023-11-18T23:59:00;8.70;99.90
